createdAt,value
2023-05-24T00:02:26.995Z,62.80
2023-05-24T00:04:55.400Z,63.10
2023-05-24T00:07:23.228Z,63.00
2023-05-24T00:09:51.148Z,63.00
2023-05-24T00:12:18.987Z,62.80
2023-05-24T00:14:47.512Z,63.20
2023-05-24T00:17:15.336Z,63.00
2023-05-24T00:19:44.529Z,63.30
2023-05-24T00:22:14.119Z,63.50
2023-05-24T00:24:42.026Z,63.40
2023-05-24T00:27:11.816Z,63.60
2023-05-24T00:29:39.701Z,63.70
2023-05-24T00:32:08.000Z,64.00
2023-05-24T00:34:35.899Z,63.80
2023-05-24T00:37:05.327Z,63.90
2023-05-24T00:39:33.221Z,64.10
2023-05-24T00:42:01.361Z,64.00
2023-05-24T00:44:29.209Z,64.20
2023-05-24T00:46:57.276Z,64.30
2023-05-24T00:49:25.217Z,64.40
2023-05-24T00:51:54.476Z,64.60
2023-05-24T00:54:26.211Z,65.00
2023-05-24T00:56:55.434Z,65.70
2023-05-24T00:59:24.052Z,65.20
2023-05-24T01:01:52.361Z,65.40
2023-05-24T01:04:22.979Z,65.40
2023-05-24T01:07:07.753Z,65.40
2023-05-24T01:09:51.613Z,65.90
2023-05-24T01:12:27.929Z,65.90
2023-05-24T01:15:06.242Z,65.80
2023-05-24T01:17:42.742Z,66.20
2023-05-24T01:20:14.959Z,66.10
2023-05-24T01:23:06.335Z,66.10
2023-05-24T01:26:01.806Z,66.60
2023-05-24T01:28:32.696Z,66.60
2023-05-24T01:31:01.730Z,66.50
2023-05-24T01:33:30.259Z,66.60
2023-05-24T01:35:58.117Z,66.60
2023-05-24T01:38:26.025Z,66.60
2023-05-24T01:41:02.250Z,66.80
2023-05-24T01:43:38.923Z,67.40
2023-05-24T01:46:20.149Z,67.50
2023-05-24T01:48:58.591Z,67.70
2023-05-24T01:51:40.316Z,67.80
2023-05-24T01:54:08.784Z,67.90
2023-05-24T01:56:37.682Z,67.60
2023-05-24T01:59:08.140Z,67.80
2023-05-24T02:01:36.471Z,68.10
2023-05-24T02:04:04.981Z,67.90
2023-05-24T02:06:32.786Z,68.10
2023-05-24T02:09:00.694Z,68.10
2023-05-24T02:11:28.642Z,68.30
2023-05-24T02:13:56.478Z,68.50
2023-05-24T02:16:26.602Z,68.50
2023-05-24T02:18:54.589Z,68.90
2023-05-24T02:21:23.589Z,69.00
2023-05-24T02:23:51.671Z,70.60
2023-05-24T02:26:19.697Z,69.20
2023-05-24T02:28:48.796Z,69.30
2023-05-24T02:31:17.087Z,69.40
2023-05-24T02:33:46.607Z,69.50
2023-05-24T02:36:14.420Z,69.60
2023-05-24T02:38:42.261Z,69.40
2023-05-24T02:41:11.854Z,69.30
2023-05-24T02:43:39.837Z,69.40
2023-05-24T02:46:07.790Z,69.50
2023-05-24T02:48:36.647Z,69.50
2023-05-24T02:51:06.009Z,69.70
2023-05-24T02:53:34.217Z,69.90
2023-05-24T02:56:02.093Z,70.40
2023-05-24T02:58:30.491Z,69.70
2023-05-24T03:00:58.366Z,69.80
2023-05-24T03:03:26.305Z,70.10
2023-05-24T03:05:54.220Z,70.00
2023-05-24T03:08:23.460Z,70.00
2023-05-24T03:10:51.558Z,70.40
2023-05-24T03:13:19.725Z,70.10
2023-05-24T03:15:47.995Z,70.20
2023-05-24T03:18:16.378Z,70.30
2023-05-24T03:20:44.696Z,70.20
2023-05-24T03:23:13.245Z,70.20
2023-05-24T03:25:42.524Z,70.00
2023-05-24T03:28:10.633Z,70.30
2023-05-24T03:30:38.497Z,70.20
2023-05-24T03:33:06.381Z,70.30
2023-05-24T03:35:34.294Z,70.40
2023-05-24T03:38:02.161Z,70.60
2023-05-24T03:40:32.574Z,70.90
2023-05-24T03:43:03.603Z,71.10
2023-05-24T03:45:39.163Z,71.40
2023-05-24T03:48:07.981Z,71.20
2023-05-24T03:50:35.844Z,71.30
2023-05-24T03:53:03.640Z,71.50
2023-05-24T03:55:31.499Z,72.80
2023-05-24T03:58:00.743Z,73.20
2023-05-24T04:00:28.664Z,73.00
2023-05-24T04:02:56.956Z,72.40
2023-05-24T04:05:26.943Z,72.90
2023-05-24T04:07:54.865Z,72.90
2023-05-24T04:10:22.900Z,72.80
2023-05-24T04:12:51.157Z,72.70
2023-05-24T04:15:21.286Z,72.80
2023-05-24T04:17:54.728Z,72.90
2023-05-24T04:20:25.207Z,72.80
2023-05-24T04:22:53.375Z,73.30
2023-05-24T04:25:21.389Z,73.20
2023-05-24T04:27:50.321Z,73.60
2023-05-24T04:30:21.272Z,73.40
2023-05-24T04:32:49.742Z,73.80
2023-05-24T04:35:17.833Z,73.80
2023-05-24T04:37:46.623Z,74.10
2023-05-24T04:40:16.436Z,74.20
2023-05-24T04:42:44.578Z,74.40
2023-05-24T04:45:12.905Z,74.60
2023-05-24T04:47:42.558Z,74.80
2023-05-24T04:50:11.132Z,75.40
2023-05-24T04:52:39.239Z,75.60
2023-05-24T04:55:08.107Z,75.60
2023-05-24T04:57:36.015Z,75.90
2023-05-24T05:00:05.574Z,75.90
2023-05-24T05:02:34.464Z,76.20
2023-05-24T05:05:03.712Z,76.40
2023-05-24T05:07:31.731Z,76.50
2023-05-24T05:09:59.600Z,76.60
2023-05-24T05:12:27.425Z,76.70
2023-05-24T05:14:55.340Z,77.00
2023-05-24T05:17:23.205Z,77.30
2023-05-24T05:19:51.672Z,77.60
2023-05-24T05:22:20.909Z,77.90
2023-05-24T05:24:48.878Z,78.00
2023-05-24T05:27:16.741Z,78.20
2023-05-24T05:29:44.744Z,78.40
2023-05-24T05:32:12.903Z,78.30
2023-05-24T05:34:40.869Z,78.50
2023-05-24T05:37:08.726Z,78.80
2023-05-24T05:39:38.071Z,78.90
2023-05-24T05:42:06.711Z,78.90
2023-05-24T05:44:34.595Z,79.00
2023-05-24T05:47:03.948Z,79.00
2023-05-24T05:49:32.767Z,79.20
2023-05-24T05:52:00.594Z,79.60
2023-05-24T05:54:28.528Z,79.50
2023-05-24T05:56:59.522Z,79.50
2023-05-24T05:59:29.159Z,79.30
2023-05-24T06:01:57.023Z,78.70
2023-05-24T06:04:24.931Z,78.60
2023-05-24T06:06:52.807Z,78.40
2023-05-24T06:09:20.945Z,78.50
2023-05-24T06:11:48.827Z,78.10
2023-05-24T06:14:21.359Z,77.80
2023-05-24T06:16:49.753Z,77.50
2023-05-24T06:19:18.243Z,76.70
2023-05-24T06:21:47.961Z,76.80
2023-05-24T06:24:20.290Z,76.80
2023-05-24T06:26:48.698Z,76.70
2023-05-24T06:29:20.181Z,76.20
2023-05-24T06:31:49.046Z,76.60
2023-05-24T06:34:18.860Z,75.70
2023-05-24T06:36:48.815Z,75.70
2023-05-24T06:39:17.315Z,75.20
2023-05-24T06:41:46.822Z,75.10
2023-05-24T06:44:14.752Z,75.30
2023-05-24T06:46:44.203Z,75.20
2023-05-24T06:49:12.990Z,74.90
2023-05-24T06:51:40.948Z,74.60
2023-05-24T06:54:09.144Z,74.20
2023-05-24T06:56:37.047Z,74.10
2023-05-24T06:59:04.932Z,73.70
2023-05-24T07:01:33.116Z,73.20
2023-05-24T07:04:02.420Z,72.80
2023-05-24T07:06:30.338Z,72.80
2023-05-24T07:08:58.525Z,72.90
2023-05-24T07:11:27.542Z,72.20
2023-05-24T07:13:55.473Z,71.60
2023-05-24T07:16:23.482Z,71.40
2023-05-24T07:18:51.653Z,70.80
2023-05-24T07:21:21.397Z,70.40
2023-05-24T07:23:49.749Z,69.90
2023-05-24T07:26:18.133Z,69.70
2023-05-24T07:28:46.832Z,70.00
2023-05-24T07:31:14.768Z,70.20
2023-05-24T07:33:42.610Z,69.90
2023-05-24T07:36:10.699Z,69.10
2023-05-24T07:38:40.107Z,68.50
2023-05-24T07:41:09.106Z,68.20
2023-05-24T07:43:37.714Z,68.20
2023-05-24T07:46:06.111Z,67.60
2023-05-24T07:48:34.046Z,67.40
2023-05-24T07:51:01.952Z,67.00
2023-05-24T07:53:29.906Z,67.10
2023-05-24T07:55:59.077Z,67.60
2023-05-24T07:58:27.590Z,67.80
2023-05-24T08:00:55.820Z,67.70
2023-05-24T08:03:25.812Z,67.30
2023-05-24T08:05:53.894Z,66.80
2023-05-24T08:08:21.761Z,66.00
2023-05-24T08:10:50.072Z,66.60
2023-05-24T08:13:19.658Z,65.90
2023-05-24T08:15:47.855Z,65.20
2023-05-24T08:18:16.537Z,64.90
2023-05-24T08:20:44.649Z,63.90
2023-05-24T08:23:13.140Z,64.00
2023-05-24T08:25:41.245Z,63.40
2023-05-24T08:28:11.141Z,63.30
2023-05-24T08:30:40.786Z,64.30
2023-05-24T08:33:08.734Z,63.90
2023-05-24T08:35:36.936Z,63.40
2023-05-24T08:38:04.748Z,63.80
2023-05-24T08:40:32.608Z,63.60
2023-05-24T08:43:01.942Z,63.30
2023-05-24T08:45:31.964Z,62.20
2023-05-24T08:48:01.593Z,62.70
2023-05-24T08:50:30.686Z,63.60
2023-05-24T08:53:00.292Z,63.20
2023-05-24T08:55:29.960Z,62.30
2023-05-24T08:58:00.749Z,61.20
2023-05-24T09:00:28.980Z,60.60
2023-05-24T09:02:58.269Z,60.80
2023-05-24T09:05:28.192Z,61.40
2023-05-24T09:07:57.716Z,61.10
2023-05-24T09:10:26.905Z,60.80
2023-05-24T09:12:58.548Z,60.70
2023-05-24T09:15:26.638Z,59.50
2023-05-24T09:17:54.931Z,59.50
2023-05-24T09:20:23.299Z,59.00
2023-05-24T09:22:54.280Z,59.10
2023-05-24T09:25:22.636Z,59.70
2023-05-24T09:27:51.891Z,60.00
2023-05-24T09:30:20.968Z,58.80
2023-05-24T09:32:59.439Z,57.90
2023-05-24T09:35:28.109Z,57.70
2023-05-24T09:37:59.846Z,57.80
2023-05-24T09:40:29.432Z,56.80
2023-05-24T09:43:05.067Z,57.20
2023-05-24T09:45:33.343Z,56.10
2023-05-24T09:48:01.320Z,56.70
2023-05-24T09:50:29.369Z,55.80
2023-05-24T09:52:58.588Z,55.60
2023-05-24T09:55:28.773Z,55.70
2023-05-24T09:58:05.098Z,56.00
2023-05-24T10:00:36.805Z,55.90
2023-05-24T10:03:07.092Z,55.70
2023-05-24T10:05:36.502Z,56.00
2023-05-24T10:08:06.058Z,56.10
2023-05-24T10:10:34.868Z,56.00
2023-05-24T10:13:03.923Z,56.10
2023-05-24T10:15:32.021Z,56.60
2023-05-24T10:18:02.004Z,56.90
2023-05-24T10:20:30.389Z,56.70
2023-05-24T10:23:02.088Z,55.90
2023-05-24T10:25:35.826Z,55.20
2023-05-24T10:28:07.221Z,54.90
2023-05-24T10:30:43.445Z,55.10
2023-05-24T10:33:15.253Z,54.90
2023-05-24T10:35:44.830Z,54.90
2023-05-24T10:38:12.862Z,55.20
2023-05-24T10:40:44.225Z,55.20
2023-05-24T10:43:12.498Z,54.50
2023-05-24T10:45:41.372Z,54.50
2023-05-24T10:48:38.137Z,55.00
2023-05-24T10:51:34.846Z,54.60
2023-05-24T10:54:13.976Z,54.20
2023-05-24T10:56:45.806Z,53.70
2023-05-24T10:59:24.522Z,53.90
2023-05-24T11:02:00.794Z,54.30
2023-05-24T11:04:32.837Z,53.80
2023-05-24T11:07:03.575Z,54.20
2023-05-24T11:09:31.899Z,54.20
2023-05-24T11:12:07.404Z,54.40
2023-05-24T11:14:38.374Z,54.20
2023-05-24T11:17:08.605Z,54.00
2023-05-24T11:19:38.590Z,53.90
2023-05-24T11:22:09.110Z,53.40
2023-05-24T11:24:38.148Z,52.90
2023-05-24T11:27:07.908Z,52.10
2023-05-24T11:29:42.493Z,52.50
2023-05-24T11:32:10.726Z,51.70
2023-05-24T11:34:39.931Z,49.80
2023-05-24T11:37:08.140Z,51.80
2023-05-24T11:39:38.479Z,52.90
2023-05-24T11:42:09.126Z,51.90
2023-05-24T11:44:39.154Z,51.80
2023-05-24T11:47:08.951Z,52.10
2023-05-24T11:49:37.285Z,51.70
2023-05-24T11:52:07.332Z,52.10
2023-05-24T11:54:37.281Z,51.70
2023-05-24T11:57:07.886Z,51.90
2023-05-24T11:59:37.910Z,51.70
2023-05-24T12:02:07.959Z,52.30
2023-05-24T12:04:36.359Z,52.20
2023-05-24T12:07:05.635Z,52.30
2023-05-24T12:09:33.603Z,52.30
2023-05-24T12:12:01.925Z,52.30
2023-05-24T12:14:32.246Z,51.70
2023-05-24T12:17:00.838Z,52.00
2023-05-24T12:19:34.590Z,51.60
2023-05-24T12:22:05.770Z,50.90
2023-05-24T12:24:34.068Z,51.50
2023-05-24T12:27:06.637Z,51.40
2023-05-24T12:29:37.595Z,51.50
2023-05-24T12:32:06.438Z,51.40
2023-05-24T12:34:34.326Z,51.20
2023-05-24T12:37:03.533Z,50.80
2023-05-24T12:39:34.201Z,51.10
2023-05-24T12:42:03.354Z,51.10
2023-05-24T12:44:32.327Z,52.10
2023-05-24T12:47:03.531Z,51.10
2023-05-24T12:49:32.916Z,50.20
2023-05-24T12:52:01.849Z,50.80
2023-05-24T12:54:30.365Z,50.60
2023-05-24T12:56:59.894Z,50.30
2023-05-24T12:59:29.663Z,50.10
2023-05-24T13:01:57.677Z,50.50
2023-05-24T13:04:27.578Z,50.40
2023-05-24T13:06:56.034Z,49.70
2023-05-24T13:09:25.588Z,50.30
2023-05-24T13:11:54.189Z,50.40
2023-05-24T13:14:22.676Z,50.10
2023-05-24T13:16:50.845Z,50.60
2023-05-24T13:19:18.968Z,51.40
2023-05-24T13:21:48.999Z,50.10
2023-05-24T13:24:17.547Z,49.90
2023-05-24T13:26:46.034Z,50.00
2023-05-24T13:31:45.461Z,49.60
2023-05-24T13:34:13.726Z,48.90
2023-05-24T13:36:41.814Z,49.30
2023-05-24T13:39:15.590Z,49.30
2023-05-24T13:41:44.910Z,49.10
2023-05-24T13:44:13.697Z,49.20
2023-05-24T13:46:42.207Z,49.10
2023-05-24T13:49:10.832Z,49.60
2023-05-24T13:51:40.075Z,49.10
2023-05-24T13:54:08.357Z,48.90
2023-05-24T13:56:38.638Z,49.10
2023-05-24T13:59:08.420Z,49.20
2023-05-24T14:01:37.757Z,49.10
2023-05-24T14:04:06.246Z,49.10
2023-05-24T14:06:37.516Z,49.20
2023-05-24T14:09:06.956Z,49.20
2023-05-24T14:11:35.012Z,49.30
2023-05-24T14:16:35.104Z,49.60
2023-05-24T14:19:03.091Z,49.50
2023-05-24T14:21:31.013Z,49.30
2023-05-24T14:23:58.962Z,49.00
2023-05-24T14:26:27.662Z,49.30
2023-05-24T14:28:56.978Z,49.40
2023-05-24T14:31:26.619Z,49.20
2023-05-24T14:33:54.752Z,49.20
2023-05-24T14:36:22.764Z,49.30
2023-05-24T14:38:50.889Z,49.70
2023-05-24T14:41:18.867Z,49.50
2023-05-24T14:43:47.464Z,49.40
2023-05-24T14:46:16.090Z,48.20
2023-05-24T14:48:46.228Z,48.50
2023-05-24T14:51:14.248Z,48.40
2023-05-24T14:53:42.067Z,48.50
2023-05-24T14:56:10.187Z,48.30
2023-05-24T14:58:38.333Z,48.00
2023-05-24T15:01:06.805Z,47.50
2023-05-24T15:03:35.060Z,47.30
2023-05-24T15:06:05.385Z,47.70
2023-05-24T15:08:35.095Z,47.70
2023-05-24T15:11:03.026Z,48.50
2023-05-24T15:13:31.156Z,48.80
2023-05-24T15:16:00.380Z,49.30
2023-05-24T15:18:29.004Z,48.70
2023-05-24T15:20:57.070Z,48.90
2023-05-24T15:23:26.793Z,49.20
2023-05-24T15:25:54.702Z,48.40
2023-05-24T15:28:23.974Z,48.20
2023-05-24T15:30:54.358Z,48.30
2023-05-24T15:33:22.457Z,48.10
2023-05-24T15:35:50.960Z,48.20
2023-05-24T15:38:18.922Z,47.70
2023-05-24T15:40:48.835Z,46.80
2023-05-24T15:43:18.729Z,45.70
2023-05-24T15:45:47.836Z,45.20
2023-05-24T15:48:15.995Z,45.00
2023-05-24T15:51:09.368Z,44.80
2023-05-24T15:53:32.504Z,44.00
2023-05-24T15:56:01.745Z,43.60
2023-05-24T15:58:29.628Z,43.40
2023-05-24T16:00:57.476Z,42.80
2023-05-24T16:03:25.430Z,41.70
2023-05-24T16:05:53.412Z,42.00
2023-05-24T16:08:27.378Z,42.30
2023-05-24T16:10:55.445Z,42.60
2023-05-24T16:13:24.932Z,43.10
2023-05-24T16:15:52.904Z,43.50
2023-05-24T16:18:22.467Z,44.20
2023-05-24T16:20:51.796Z,44.60
2023-05-24T16:23:22.799Z,44.40
2023-05-24T16:25:51.315Z,44.60
2023-05-24T16:28:23.761Z,44.60
2023-05-24T16:30:55.811Z,45.00
2023-05-24T16:33:24.246Z,45.20
2023-05-24T16:36:00.511Z,45.50
2023-05-24T16:38:30.051Z,45.60
2023-05-24T16:40:58.035Z,46.20
2023-05-24T16:43:26.021Z,46.50
2023-05-24T16:45:56.099Z,46.80
2023-05-24T16:48:28.066Z,47.20
2023-05-24T16:50:56.666Z,47.40
2023-05-24T16:53:26.090Z,47.80
2023-05-24T16:55:55.620Z,47.60
2023-05-24T16:58:24.423Z,47.70
2023-05-24T17:00:54.227Z,47.90
2023-05-24T17:03:27.748Z,48.20
2023-05-24T17:05:58.912Z,48.50
2023-05-24T17:08:28.576Z,49.20
2023-05-24T17:10:57.089Z,49.10
2023-05-24T17:13:27.315Z,49.30
2023-05-24T17:15:55.853Z,49.50
2023-05-24T17:18:29.085Z,49.80
2023-05-24T17:20:57.886Z,49.90
2023-05-24T17:23:26.575Z,50.00
2023-05-24T17:25:55.496Z,50.20
2023-05-24T17:28:27.335Z,50.40
2023-05-24T17:30:55.777Z,50.20
2023-05-24T17:33:26.030Z,50.30
2023-05-24T17:35:56.312Z,50.30
2023-05-24T17:38:24.804Z,50.30
2023-05-24T17:40:56.869Z,50.40
2023-05-24T17:43:28.683Z,50.50
2023-05-24T17:46:03.036Z,50.50
2023-05-24T17:48:33.061Z,50.70
2023-05-24T17:51:01.827Z,50.90
2023-05-24T17:53:32.097Z,51.10
2023-05-24T17:56:00.666Z,51.20
2023-05-24T17:58:28.553Z,51.00
2023-05-24T18:00:56.451Z,51.30
2023-05-24T18:03:25.005Z,51.50
2023-05-24T18:05:54.228Z,51.70
2023-05-24T18:08:22.954Z,52.20
2023-05-24T18:10:51.490Z,52.20
2023-05-24T18:13:19.548Z,52.00
2023-05-24T18:15:48.877Z,52.30
2023-05-24T18:18:17.464Z,52.30
2023-05-24T18:20:45.812Z,52.60
2023-05-24T18:23:15.381Z,52.80
2023-05-24T18:25:45.324Z,53.10
2023-05-24T18:28:13.559Z,53.10
2023-05-24T18:30:42.798Z,54.40
2023-05-24T18:33:10.821Z,53.60
2023-05-24T18:35:38.893Z,53.60
2023-05-24T18:38:06.711Z,53.80
2023-05-24T18:40:35.907Z,54.00
2023-05-24T18:43:03.817Z,54.10
2023-05-24T18:45:31.759Z,54.20
2023-05-24T18:48:01.020Z,54.20
2023-05-24T18:50:28.921Z,54.40
2023-05-24T18:52:57.268Z,54.50
2023-05-24T18:55:25.112Z,54.50
2023-05-24T18:57:54.370Z,54.80
2023-05-24T19:00:22.834Z,54.80
2023-05-24T19:02:51.768Z,55.00
2023-05-24T19:05:20.881Z,54.90
2023-05-24T19:07:48.940Z,55.20
2023-05-24T19:10:17.646Z,55.20
2023-05-24T19:12:45.677Z,55.20
2023-05-24T19:15:15.332Z,55.60
2023-05-24T19:17:43.219Z,55.70
2023-05-24T19:20:12.653Z,55.70
2023-05-24T19:22:40.709Z,56.00
2023-05-24T19:25:09.529Z,56.00
2023-05-24T19:27:39.791Z,56.30
2023-05-24T19:30:17.346Z,56.20
2023-05-24T19:32:45.322Z,56.30
2023-05-24T19:35:13.364Z,56.20
2023-05-24T19:37:41.240Z,56.30
2023-05-24T19:40:09.982Z,56.60
2023-05-24T19:42:37.898Z,56.60
2023-05-24T19:45:06.809Z,56.70
2023-05-24T19:47:36.036Z,57.00
2023-05-24T19:50:04.167Z,57.00
2023-05-24T19:52:32.139Z,57.10
2023-05-24T19:55:00.144Z,57.10
2023-05-24T19:57:28.049Z,57.70
2023-05-24T19:59:56.242Z,57.20
2023-05-24T20:02:24.370Z,57.40
2023-05-24T20:04:54.790Z,57.30
2023-05-24T20:07:22.710Z,57.60
2023-05-24T20:09:50.839Z,57.60
2023-05-24T20:12:18.618Z,57.60
2023-05-24T20:14:46.673Z,57.90
2023-05-24T20:17:14.661Z,58.00
2023-05-24T20:19:42.534Z,58.00
2023-05-24T20:22:12.519Z,58.30
2023-05-24T20:24:40.328Z,58.50
2023-05-24T20:27:08.201Z,58.60
2023-05-24T20:29:36.164Z,58.80
2023-05-24T20:32:04.144Z,60.20
2023-05-24T20:34:32.004Z,60.00
2023-05-24T20:36:59.970Z,59.80
2023-05-24T20:39:29.169Z,58.30
2023-05-24T20:41:58.471Z,59.80
2023-05-24T20:44:26.660Z,59.50
2023-05-24T20:46:54.774Z,59.70
2023-05-24T20:49:22.614Z,59.40
2023-05-24T20:51:50.946Z,60.30
2023-05-24T20:54:18.986Z,59.60
2023-05-24T20:56:48.960Z,60.10
2023-05-24T20:59:17.440Z,60.20
2023-05-24T21:01:45.701Z,60.00
2023-05-24T21:04:14.158Z,60.30
2023-05-24T21:06:42.112Z,59.70
2023-05-24T21:09:10.334Z,60.60
2023-05-24T21:11:38.436Z,60.60
2023-05-24T21:14:07.623Z,60.90
2023-05-24T21:16:36.479Z,61.30
2023-05-24T21:19:04.331Z,61.40
2023-05-24T21:21:32.161Z,61.60
2023-05-24T21:24:00.039Z,61.60
2023-05-24T21:26:27.960Z,62.00
2023-05-24T21:28:55.813Z,62.10
2023-05-24T21:31:25.964Z,64.00
2023-05-24T21:33:55.764Z,63.10
2023-05-24T21:36:23.658Z,63.10
2023-05-24T21:38:51.564Z,63.20
2023-05-24T21:41:19.479Z,63.10
2023-05-24T21:43:47.766Z,63.20
2023-05-24T21:46:15.674Z,63.20
2023-05-24T21:48:45.590Z,63.40
2023-05-24T21:51:15.529Z,63.90
2023-05-24T21:53:43.516Z,63.60
2023-05-24T21:56:11.654Z,64.00
2023-05-24T21:58:39.498Z,64.00
2023-05-24T22:01:08.571Z,64.20
2023-05-24T22:03:38.205Z,64.20
2023-05-24T22:06:07.788Z,64.40
2023-05-24T22:08:35.759Z,64.60
2023-05-24T22:11:03.650Z,64.70
2023-05-24T22:13:31.540Z,64.70
2023-05-24T22:15:59.526Z,64.90
2023-05-24T22:18:28.200Z,65.00
2023-05-24T22:20:58.967Z,65.10
2023-05-24T22:23:28.207Z,65.40
2023-05-24T22:25:56.099Z,67.30
2023-05-24T22:28:24.794Z,65.40
2023-05-24T22:30:53.211Z,65.60
2023-05-24T22:33:21.175Z,65.70
2023-05-24T22:35:49.674Z,65.80
2023-05-24T22:38:17.915Z,65.40
2023-05-24T22:40:47.591Z,65.90
2023-05-24T22:43:15.668Z,66.00
2023-05-24T22:45:43.699Z,66.10
2023-05-24T22:48:11.742Z,66.10
2023-05-24T22:50:39.619Z,66.40
2023-05-24T22:53:09.068Z,66.60
2023-05-24T22:55:36.928Z,66.60
2023-05-24T22:58:06.209Z,66.70
2023-05-24T23:00:34.046Z,67.00
2023-05-24T23:03:01.963Z,66.90
2023-05-24T23:05:30.453Z,66.80
2023-05-24T23:07:58.617Z,67.00
2023-05-24T23:10:26.506Z,66.60
2023-05-24T23:12:55.212Z,66.80
2023-05-24T23:15:28.982Z,67.00
2023-05-24T23:17:57.170Z,67.20
2023-05-24T23:20:25.843Z,67.00
2023-05-24T23:22:53.841Z,67.00
2023-05-24T23:25:21.697Z,67.00
2023-05-24T23:27:49.741Z,67.10
2023-05-24T23:30:17.894Z,69.20
2023-05-24T23:32:47.578Z,67.60
2023-05-24T23:35:15.810Z,67.60
2023-05-24T23:37:43.653Z,67.70
2023-05-24T23:40:12.820Z,67.90
2023-05-24T23:42:40.717Z,67.90
2023-05-24T23:45:09.296Z,68.10
2023-05-24T23:47:37.155Z,68.30
2023-05-24T23:50:07.870Z,68.40
2023-05-24T23:52:36.003Z,68.70
2023-05-24T23:55:04.315Z,69.40
2023-05-24T23:57:32.114Z,68.70
2023-05-24T23:59:59.945Z,68.60
